Terminal Aerodrome Forecast
Issued by NWS

Home | Current Version | Previous Version | Text Only | Print | Product List | Glossary On
Versions: 1 2 3 4 5 6 7 8 9 10 11 12 13 14 15 16 17 18 19 20 21 22 23 24 25 26 27 28 29 30 31 32 33 34
000
FTUS43 KFGF 221130
TAFTVF
TAF
KTVF 221130Z 2212/2312 03009KT P6SM OVC010
     FM230000 02007KT P6SM OVC015
     FM230700 02004KT P6SM BKN008
     FM230800 VRB03KT P6SM BKN120=

USA.gov is the U.S. government's official web portal to all federal, state and local government web resources and services.